sensor_id;sensor_type;location;lat;lon;timestamp;P1;durP1;ratioP1;P2;durP2;ratioP2
72261;SDS011;60173;52.112;8.648;2022-12-18T00:01:27;38.13;;;15.95;;
72261;SDS011;60173;52.112;8.648;2022-12-18T00:03:56;41.97;;;17.08;;
72261;SDS011;60173;52.112;8.648;2022-12-18T00:06:24;38.85;;;16.60;;
72261;SDS011;60173;52.112;8.648;2022-12-18T00:08:52;40.83;;;17.42;;
72261;SDS011;60173;52.112;8.648;2022-12-18T00:11:21;37.92;;;16.88;;
72261;SDS011;60173;52.112;8.648;2022-12-18T00:13:49;39.15;;;15.93;;
72261;SDS011;60173;52.112;8.648;2022-12-18T00:16:17;36.95;;;16.10;;
72261;SDS011;60173;52.112;8.648;2022-12-18T00:18:47;36.60;;;16.27;;
72261;SDS011;60173;52.112;8.648;2022-12-18T00:21:18;41.28;;;17.35;;
72261;SDS011;60173;52.112;8.648;2022-12-18T00:23:46;39.35;;;16.33;;
72261;SDS011;60173;52.112;8.648;2022-12-18T00:26:14;37.08;;;16.30;;
72261;SDS011;60173;52.112;8.648;2022-12-18T00:29:05;38.83;;;16.27;;
72261;SDS011;60173;52.112;8.648;2022-12-18T00:31:41;34.00;;;15.32;;
72261;SDS011;60173;52.112;8.648;2022-12-18T00:34:09;39.35;;;15.90;;
72261;SDS011;60173;52.112;8.648;2022-12-18T00:36:38;35.88;;;14.25;;
72261;SDS011;60173;52.112;8.648;2022-12-18T00:39:05;35.17;;;14.25;;
72261;SDS011;60173;52.112;8.648;2022-12-18T00:41:31;34.60;;;14.65;;
72261;SDS011;60173;52.112;8.648;2022-12-18T00:43:58;38.67;;;15.13;;
72261;SDS011;60173;52.112;8.648;2022-12-18T00:46:24;33.72;;;14.38;;
72261;SDS011;60173;52.112;8.648;2022-12-18T00:48:50;36.30;;;14.38;;
72261;SDS011;60173;52.112;8.648;2022-12-18T00:51:17;34.50;;;15.02;;
72261;SDS011;60173;52.112;8.648;2022-12-18T00:53:43;35.50;;;14.80;;
72261;SDS011;60173;52.112;8.648;2022-12-18T00:56:09;32.17;;;14.45;;
72261;SDS011;60173;52.112;8.648;2022-12-18T00:58:36;35.55;;;14.75;;
72261;SDS011;60173;52.112;8.648;2022-12-18T01:01:03;41.00;;;15.48;;
72261;SDS011;60173;52.112;8.648;2022-12-18T01:03:31;38.72;;;16.00;;
72261;SDS011;60173;52.112;8.648;2022-12-18T01:05:57;38.13;;;15.50;;
72261;SDS011;60173;52.112;8.648;2022-12-18T01:08:23;32.88;;;14.18;;
72261;SDS011;60173;52.112;8.648;2022-12-18T01:10:50;35.70;;;14.75;;
72261;SDS011;60173;52.112;8.648;2022-12-18T01:13:16;38.08;;;15.00;;
72261;SDS011;60173;52.112;8.648;2022-12-18T01:15:49;34.00;;;14.35;;
72261;SDS011;60173;52.112;8.648;2022-12-18T01:18:16;34.53;;;14.23;;
72261;SDS011;60173;52.112;8.648;2022-12-18T01:20:42;32.58;;;14.15;;
72261;SDS011;60173;52.112;8.648;2022-12-18T01:23:09;34.33;;;14.65;;
72261;SDS011;60173;52.112;8.648;2022-12-18T01:25:35;41.60;;;15.80;;
72261;SDS011;60173;52.112;8.648;2022-12-18T01:28:02;34.80;;;15.35;;
72261;SDS011;60173;52.112;8.648;2022-12-18T01:30:29;38.50;;;15.38;;
72261;SDS011;60173;52.112;8.648;2022-12-18T01:32:55;36.58;;;15.73;;
72261;SDS011;60173;52.112;8.648;2022-12-18T01:35:21;38.72;;;15.35;;
72261;SDS011;60173;52.112;8.648;2022-12-18T01:37:48;32.35;;;14.07;;
72261;SDS011;60173;52.112;8.648;2022-12-18T01:40:14;39.38;;;15.30;;
72261;SDS011;60173;52.112;8.648;2022-12-18T01:42:40;37.38;;;15.45;;
72261;SDS011;60173;52.112;8.648;2022-12-18T01:53:21;41.47;;;15.23;;
72261;SDS011;60173;52.112;8.648;2022-12-18T01:55:56;35.35;;;14.57;;
72261;SDS011;60173;52.112;8.648;2022-12-18T01:58:27;36.58;;;14.77;;
72261;SDS011;60173;52.112;8.648;2022-12-18T02:00:59;35.92;;;15.35;;
72261;SDS011;60173;52.112;8.648;2022-12-18T02:03:26;36.58;;;15.23;;
72261;SDS011;60173;52.112;8.648;2022-12-18T02:08:58;39.60;;;15.50;;
72261;SDS011;60173;52.112;8.648;2022-12-18T02:11:38;36.90;;;14.75;;
72261;SDS011;60173;52.112;8.648;2022-12-18T02:16:59;32.33;;;13.90;;
72261;SDS011;60173;52.112;8.648;2022-12-18T02:19:39;35.35;;;14.45;;
72261;SDS011;60173;52.112;8.648;2022-12-18T02:22:14;43.58;;;16.27;;
72261;SDS011;60173;52.112;8.648;2022-12-18T02:24:59;37.22;;;15.65;;
72261;SDS011;60173;52.112;8.648;2022-12-18T02:27:37;38.35;;;15.00;;
72261;SDS011;60173;52.112;8.648;2022-12-18T02:30:05;38.53;;;15.80;;
72261;SDS011;60173;52.112;8.648;2022-12-18T02:32:35;37.33;;;15.65;;
72261;SDS011;60173;52.112;8.648;2022-12-18T02:35:06;39.15;;;16.15;;
72261;SDS011;60173;52.112;8.648;2022-12-18T02:37:36;38.58;;;15.07;;
72261;SDS011;60173;52.112;8.648;2022-12-18T02:40:06;35.28;;;15.88;;
72261;SDS011;60173;52.112;8.648;2022-12-18T02:42:34;36.33;;;14.60;;
72261;SDS011;60173;52.112;8.648;2022-12-18T02:45:01;36.30;;;15.57;;
72261;SDS011;60173;52.112;8.648;2022-12-18T02:47:28;33.72;;;15.40;;
72261;SDS011;60173;52.112;8.648;2022-12-18T02:50:07;34.22;;;14.43;;
72261;SDS011;60173;52.112;8.648;2022-12-18T02:53:10;39.15;;;15.13;;
72261;SDS011;60173;52.112;8.648;2022-12-18T02:55:58;42.13;;;14.88;;
72261;SDS011;60173;52.112;8.648;2022-12-18T03:01:28;40.55;;;15.85;;
72261;SDS011;60173;52.112;8.648;2022-12-18T03:04:07;36.83;;;14.65;;
72261;SDS011;60173;52.112;8.648;2022-12-18T03:06:49;37.55;;;14.73;;
72261;SDS011;60173;52.112;8.648;2022-12-18T03:09:34;38.72;;;15.20;;
72261;SDS011;60173;52.112;8.648;2022-12-18T03:12:06;37.38;;;15.27;;
72261;SDS011;60173;52.112;8.648;2022-12-18T03:14:42;38.05;;;15.35;;
72261;SDS011;60173;52.112;8.648;2022-12-18T03:17:11;40.05;;;15.18;;
72261;SDS011;60173;52.112;8.648;2022-12-18T03:19:42;33.92;;;15.23;;
72261;SDS011;60173;52.112;8.648;2022-12-18T03:22:10;42.40;;;16.70;;
72261;SDS011;60173;52.112;8.648;2022-12-18T03:24:37;44.08;;;16.60;;
72261;SDS011;60173;52.112;8.648;2022-12-18T03:27:05;40.65;;;16.63;;
72261;SDS011;60173;52.112;8.648;2022-12-18T03:29:46;34.65;;;15.90;;
72261;SDS011;60173;52.112;8.648;2022-12-18T03:32:20;40.03;;;15.25;;
72261;SDS011;60173;52.112;8.648;2022-12-18T03:34:51;39.65;;;16.00;;
72261;SDS011;60173;52.112;8.648;2022-12-18T03:37:23;36.13;;;15.95;;
72261;SDS011;60173;52.112;8.648;2022-12-18T03:39:50;43.72;;;16.02;;
72261;SDS011;60173;52.112;8.648;2022-12-18T03:42:27;40.03;;;16.10;;
72261;SDS011;60173;52.112;8.648;2022-12-18T03:50:18;36.40;;;14.82;;
72261;SDS011;60173;52.112;8.648;2022-12-18T03:52:54;32.25;;;13.80;;
72261;SDS011;60173;52.112;8.648;2022-12-18T03:55:26;34.05;;;13.63;;
72261;SDS011;60173;52.112;8.648;2022-12-18T03:57:57;37.72;;;15.52;;
72261;SDS011;60173;52.112;8.648;2022-12-18T04:00:25;35.50;;;14.32;;
72261;SDS011;60173;52.112;8.648;2022-12-18T04:02:53;40.10;;;15.55;;
72261;SDS011;60173;52.112;8.648;2022-12-18T04:05:21;35.78;;;14.45;;
72261;SDS011;60173;52.112;8.648;2022-12-18T04:07:50;35.65;;;13.75;;
72261;SDS011;60173;52.112;8.648;2022-12-18T04:10:18;35.13;;;15.25;;
72261;SDS011;60173;52.112;8.648;2022-12-18T04:12:44;35.35;;;15.13;;
72261;SDS011;60173;52.112;8.648;2022-12-18T04:15:11;34.40;;;15.15;;
72261;SDS011;60173;52.112;8.648;2022-12-18T04:17:40;34.58;;;15.23;;
72261;SDS011;60173;52.112;8.648;2022-12-18T04:20:13;36.92;;;15.45;;
72261;SDS011;60173;52.112;8.648;2022-12-18T04:22:40;39.45;;;16.08;;
72261;SDS011;60173;52.112;8.648;2022-12-18T04:25:06;33.17;;;14.75;;
72261;SDS011;60173;52.112;8.648;2022-12-18T04:27:33;38.47;;;15.95;;
72261;SDS011;60173;52.112;8.648;2022-12-18T04:30:00;34.85;;;14.85;;
72261;SDS011;60173;52.112;8.648;2022-12-18T04:32:26;35.80;;;15.95;;
72261;SDS011;60173;52.112;8.648;2022-12-18T04:34:52;31.52;;;14.27;;
72261;SDS011;60173;52.112;8.648;2022-12-18T04:37:19;39.38;;;15.43;;
72261;SDS011;60173;52.112;8.648;2022-12-18T04:39:45;37.47;;;15.52;;
72261;SDS011;60173;52.112;8.648;2022-12-18T04:42:12;33.75;;;15.68;;
72261;SDS011;60173;52.112;8.648;2022-12-18T04:44:38;33.40;;;14.75;;
72261;SDS011;60173;52.112;8.648;2022-12-18T04:47:04;41.85;;;16.85;;
72261;SDS011;60173;52.112;8.648;2022-12-18T04:49:30;33.47;;;14.63;;
72261;SDS011;60173;52.112;8.648;2022-12-18T04:51:57;39.42;;;15.60;;
72261;SDS011;60173;52.112;8.648;2022-12-18T04:54:23;42.95;;;16.15;;
72261;SDS011;60173;52.112;8.648;2022-12-18T04:56:49;37.70;;;15.82;;
72261;SDS011;60173;52.112;8.648;2022-12-18T04:59:16;38.28;;;16.73;;
72261;SDS011;60173;52.112;8.648;2022-12-18T05:01:42;33.20;;;14.93;;
72261;SDS011;60173;52.112;8.648;2022-12-18T05:04:09;33.85;;;15.38;;
72261;SDS011;60173;52.112;8.648;2022-12-18T05:06:36;35.55;;;14.82;;
72261;SDS011;60173;52.112;8.648;2022-12-18T05:09:02;37.90;;;16.08;;
72261;SDS011;60173;52.112;8.648;2022-12-18T05:11:29;33.20;;;14.77;;
72261;SDS011;60173;52.112;8.648;2022-12-18T05:13:55;36.28;;;15.63;;
72261;SDS011;60173;52.112;8.648;2022-12-18T05:16:21;34.65;;;15.85;;
72261;SDS011;60173;52.112;8.648;2022-12-18T05:18:48;35.30;;;15.57;;
72261;SDS011;60173;52.112;8.648;2022-12-18T05:21:14;38.42;;;16.70;;
72261;SDS011;60173;52.112;8.648;2022-12-18T05:23:41;34.40;;;15.68;;
72261;SDS011;60173;52.112;8.648;2022-12-18T05:26:08;37.15;;;15.73;;
72261;SDS011;60173;52.112;8.648;2022-12-18T05:28:35;35.80;;;15.93;;
72261;SDS011;60173;52.112;8.648;2022-12-18T05:31:04;38.45;;;15.25;;
72261;SDS011;60173;52.112;8.648;2022-12-18T05:33:32;33.13;;;14.57;;
72261;SDS011;60173;52.112;8.648;2022-12-18T05:36:00;37.85;;;15.45;;
72261;SDS011;60173;52.112;8.648;2022-12-18T05:38:30;36.80;;;14.85;;
72261;SDS011;60173;52.112;8.648;2022-12-18T05:40:58;37.30;;;15.27;;
72261;SDS011;60173;52.112;8.648;2022-12-18T05:43:25;40.72;;;16.98;;
72261;SDS011;60173;52.112;8.648;2022-12-18T05:45:52;42.67;;;16.90;;
72261;SDS011;60173;52.112;8.648;2022-12-18T05:48:20;40.22;;;16.75;;
72261;SDS011;60173;52.112;8.648;2022-12-18T05:50:47;38.60;;;16.02;;
72261;SDS011;60173;52.112;8.648;2022-12-18T05:53:16;35.08;;;16.10;;
72261;SDS011;60173;52.112;8.648;2022-12-18T05:55:44;36.13;;;15.55;;
72261;SDS011;60173;52.112;8.648;2022-12-18T05:58:12;38.10;;;16.30;;
72261;SDS011;60173;52.112;8.648;2022-12-18T06:00:40;36.33;;;15.85;;
72261;SDS011;60173;52.112;8.648;2022-12-18T06:03:08;39.22;;;14.75;;
72261;SDS011;60173;52.112;8.648;2022-12-18T06:05:37;42.40;;;17.58;;
72261;SDS011;60173;52.112;8.648;2022-12-18T06:08:04;37.35;;;16.77;;
72261;SDS011;60173;52.112;8.648;2022-12-18T06:10:31;40.53;;;16.15;;
72261;SDS011;60173;52.112;8.648;2022-12-18T06:12:57;39.17;;;16.65;;
72261;SDS011;60173;52.112;8.648;2022-12-18T06:15:24;35.63;;;16.90;;
72261;SDS011;60173;52.112;8.648;2022-12-18T06:17:50;39.60;;;17.77;;
72261;SDS011;60173;52.112;8.648;2022-12-18T06:20:17;40.45;;;16.75;;
72261;SDS011;60173;52.112;8.648;2022-12-18T06:22:43;36.25;;;16.48;;
72261;SDS011;60173;52.112;8.648;2022-12-18T06:25:10;42.97;;;17.42;;
72261;SDS011;60173;52.112;8.648;2022-12-18T06:27:37;40.17;;;16.25;;
72261;SDS011;60173;52.112;8.648;2022-12-18T06:30:03;37.30;;;15.95;;
72261;SDS011;60173;52.112;8.648;2022-12-18T06:32:30;33.97;;;15.57;;
72261;SDS011;60173;52.112;8.648;2022-12-18T06:34:57;34.03;;;15.07;;
72261;SDS011;60173;52.112;8.648;2022-12-18T06:37:23;37.17;;;16.17;;
72261;SDS011;60173;52.112;8.648;2022-12-18T06:39:50;36.95;;;16.50;;
72261;SDS011;60173;52.112;8.648;2022-12-18T06:42:16;39.28;;;17.38;;
72261;SDS011;60173;52.112;8.648;2022-12-18T06:44:42;34.70;;;16.48;;
72261;SDS011;60173;52.112;8.648;2022-12-18T06:47:08;34.40;;;14.88;;
72261;SDS011;60173;52.112;8.648;2022-12-18T06:49:35;38.85;;;15.18;;
72261;SDS011;60173;52.112;8.648;2022-12-18T06:52:01;34.63;;;14.90;;
72261;SDS011;60173;52.112;8.648;2022-12-18T06:54:28;32.50;;;15.52;;
72261;SDS011;60173;52.112;8.648;2022-12-18T06:56:54;36.97;;;14.95;;
72261;SDS011;60173;52.112;8.648;2022-12-18T06:59:20;37.22;;;15.65;;
72261;SDS011;60173;52.112;8.648;2022-12-18T07:01:47;36.50;;;14.65;;
72261;SDS011;60173;52.112;8.648;2022-12-18T07:04:13;41.83;;;15.35;;
72261;SDS011;60173;52.112;8.648;2022-12-18T07:06:40;37.70;;;15.20;;
72261;SDS011;60173;52.112;8.648;2022-12-18T07:09:06;35.42;;;15.20;;
72261;SDS011;60173;52.112;8.648;2022-12-18T07:11:33;36.90;;;15.82;;
72261;SDS011;60173;52.112;8.648;2022-12-18T07:13:59;34.30;;;14.90;;
72261;SDS011;60173;52.112;8.648;2022-12-18T07:16:25;39.88;;;16.48;;
72261;SDS011;60173;52.112;8.648;2022-12-18T07:18:53;35.22;;;16.25;;
72261;SDS011;60173;52.112;8.648;2022-12-18T07:21:20;35.83;;;15.45;;
72261;SDS011;60173;52.112;8.648;2022-12-18T07:23:48;33.00;;;14.73;;
72261;SDS011;60173;52.112;8.648;2022-12-18T07:26:15;33.67;;;15.05;;
72261;SDS011;60173;52.112;8.648;2022-12-18T07:28:44;32.60;;;14.45;;
72261;SDS011;60173;52.112;8.648;2022-12-18T07:31:15;32.25;;;14.10;;
72261;SDS011;60173;52.112;8.648;2022-12-18T07:33:44;26.73;;;11.13;;
72261;SDS011;60173;52.112;8.648;2022-12-18T07:36:11;43.22;;;16.48;;
72261;SDS011;60173;52.112;8.648;2022-12-18T07:38:38;35.58;;;15.85;;
72261;SDS011;60173;52.112;8.648;2022-12-18T07:41:06;39.22;;;17.15;;
72261;SDS011;60173;52.112;8.648;2022-12-18T07:43:35;33.70;;;15.60;;
72261;SDS011;60173;52.112;8.648;2022-12-18T07:46:03;37.33;;;16.55;;
72261;SDS011;60173;52.112;8.648;2022-12-18T07:48:30;39.55;;;17.85;;
72261;SDS011;60173;52.112;8.648;2022-12-18T07:51:04;38.35;;;16.48;;
72261;SDS011;60173;52.112;8.648;2022-12-18T07:53:32;34.08;;;16.02;;
72261;SDS011;60173;52.112;8.648;2022-12-18T07:55:59;34.70;;;15.98;;
72261;SDS011;60173;52.112;8.648;2022-12-18T07:58:47;33.47;;;15.00;;
72261;SDS011;60173;52.112;8.648;2022-12-18T08:01:14;39.10;;;16.40;;
72261;SDS011;60173;52.112;8.648;2022-12-18T08:03:40;35.88;;;16.20;;
72261;SDS011;60173;52.112;8.648;2022-12-18T08:06:08;30.88;;;14.35;;
72261;SDS011;60173;52.112;8.648;2022-12-18T08:08:36;35.70;;;15.93;;
72261;SDS011;60173;52.112;8.648;2022-12-18T08:11:02;41.35;;;16.73;;
72261;SDS011;60173;52.112;8.648;2022-12-18T08:13:29;35.70;;;16.67;;
72261;SDS011;60173;52.112;8.648;2022-12-18T08:15:56;33.15;;;14.90;;
72261;SDS011;60173;52.112;8.648;2022-12-18T08:18:22;32.20;;;14.20;;
72261;SDS011;60173;52.112;8.648;2022-12-18T08:20:49;30.10;;;14.05;;
72261;SDS011;60173;52.112;8.648;2022-12-18T08:23:15;34.40;;;14.55;;
72261;SDS011;60173;52.112;8.648;2022-12-18T08:25:42;31.70;;;14.07;;
72261;SDS011;60173;52.112;8.648;2022-12-18T08:28:08;34.65;;;14.50;;
72261;SDS011;60173;52.112;8.648;2022-12-18T08:30:35;33.58;;;14.70;;
72261;SDS011;60173;52.112;8.648;2022-12-18T08:33:02;27.38;;;13.98;;
72261;SDS011;60173;52.112;8.648;2022-12-18T08:35:29;30.50;;;13.60;;
72261;SDS011;60173;52.112;8.648;2022-12-18T08:38:03;31.45;;;13.90;;
72261;SDS011;60173;52.112;8.648;2022-12-18T08:40:29;30.23;;;13.68;;
72261;SDS011;60173;52.112;8.648;2022-12-18T08:42:56;32.38;;;14.60;;
72261;SDS011;60173;52.112;8.648;2022-12-18T08:45:22;29.92;;;13.80;;
72261;SDS011;60173;52.112;8.648;2022-12-18T08:47:48;31.83;;;14.07;;
72261;SDS011;60173;52.112;8.648;2022-12-18T08:50:15;40.75;;;14.82;;
72261;SDS011;60173;52.112;8.648;2022-12-18T08:52:41;31.02;;;14.32;;
72261;SDS011;60173;52.112;8.648;2022-12-18T08:55:08;28.55;;;13.80;;
72261;SDS011;60173;52.112;8.648;2022-12-18T08:57:34;31.08;;;14.45;;
72261;SDS011;60173;52.112;8.648;2022-12-18T09:00:01;30.25;;;14.48;;
72261;SDS011;60173;52.112;8.648;2022-12-18T09:02:27;31.92;;;15.20;;
72261;SDS011;60173;52.112;8.648;2022-12-18T09:04:54;27.77;;;13.50;;
72261;SDS011;60173;52.112;8.648;2022-12-18T09:07:23;33.30;;;13.52;;
72261;SDS011;60173;52.112;8.648;2022-12-18T09:09:49;28.80;;;14.30;;
72261;SDS011;60173;52.112;8.648;2022-12-18T09:12:15;28.13;;;13.93;;
72261;SDS011;60173;52.112;8.648;2022-12-18T09:14:42;27.83;;;13.18;;
72261;SDS011;60173;52.112;8.648;2022-12-18T09:17:08;31.17;;;13.40;;
72261;SDS011;60173;52.112;8.648;2022-12-18T09:19:34;30.85;;;14.13;;
72261;SDS011;60173;52.112;8.648;2022-12-18T09:22:01;30.20;;;13.30;;
72261;SDS011;60173;52.112;8.648;2022-12-18T09:24:27;28.83;;;13.18;;
72261;SDS011;60173;52.112;8.648;2022-12-18T09:26:53;29.50;;;12.20;;
72261;SDS011;60173;52.112;8.648;2022-12-18T09:29:23;28.75;;;13.02;;
72261;SDS011;60173;52.112;8.648;2022-12-18T09:31:49;28.83;;;11.68;;
72261;SDS011;60173;52.112;8.648;2022-12-18T09:34:16;22.75;;;11.00;;
72261;SDS011;60173;52.112;8.648;2022-12-18T09:36:42;25.83;;;12.27;;
72261;SDS011;60173;52.112;8.648;2022-12-18T09:39:09;22.55;;;10.90;;
72261;SDS011;60173;52.112;8.648;2022-12-18T09:47:02;26.00;;;11.45;;
72261;SDS011;60173;52.112;8.648;2022-12-18T09:49:33;22.60;;;11.73;;
72261;SDS011;60173;52.112;8.648;2022-12-18T09:52:14;23.13;;;11.05;;
72261;SDS011;60173;52.112;8.648;2022-12-18T09:54:50;22.30;;;10.55;;
72261;SDS011;60173;52.112;8.648;2022-12-18T09:57:24;26.42;;;11.20;;
72261;SDS011;60173;52.112;8.648;2022-12-18T10:00:03;18.92;;;9.55;;
72261;SDS011;60173;52.112;8.648;2022-12-18T10:02:53;20.80;;;10.73;;
72261;SDS011;60173;52.112;8.648;2022-12-18T10:13:28;23.95;;;10.25;;
72261;SDS011;60173;52.112;8.648;2022-12-18T10:21:02;23.23;;;9.15;;
72261;SDS011;60173;52.112;8.648;2022-12-18T10:26:28;19.55;;;9.48;;
72261;SDS011;60173;52.112;8.648;2022-12-18T10:28:57;17.05;;;8.88;;
72261;SDS011;60173;52.112;8.648;2022-12-18T10:31:30;18.48;;;8.35;;
72261;SDS011;60173;52.112;8.648;2022-12-18T10:33:57;18.45;;;8.60;;
72261;SDS011;60173;52.112;8.648;2022-12-18T10:36:23;18.20;;;9.15;;
72261;SDS011;60173;52.112;8.648;2022-12-18T10:38:51;17.60;;;8.73;;
72261;SDS011;60173;52.112;8.648;2022-12-18T10:43:43;25.83;;;9.90;;
72261;SDS011;60173;52.112;8.648;2022-12-18T10:48:55;18.80;;;8.20;;
72261;SDS011;60173;52.112;8.648;2022-12-18T10:54:01;18.65;;;8.32;;
72261;SDS011;60173;52.112;8.648;2022-12-18T10:56:33;20.88;;;8.45;;
72261;SDS011;60173;52.112;8.648;2022-12-18T11:01:33;18.73;;;8.75;;
72261;SDS011;60173;52.112;8.648;2022-12-18T11:04:25;15.95;;;8.00;;
72261;SDS011;60173;52.112;8.648;2022-12-18T11:06:52;16.15;;;8.48;;
72261;SDS011;60173;52.112;8.648;2022-12-18T11:09:27;20.25;;;8.95;;
72261;SDS011;60173;52.112;8.648;2022-12-18T11:11:57;20.38;;;8.43;;
72261;SDS011;60173;52.112;8.648;2022-12-18T11:17:22;19.27;;;8.88;;
72261;SDS011;60173;52.112;8.648;2022-12-18T11:19:55;17.27;;;8.43;;
72261;SDS011;60173;52.112;8.648;2022-12-18T11:22:31;18.05;;;8.95;;
72261;SDS011;60173;52.112;8.648;2022-12-18T11:28:05;18.02;;;8.93;;
72261;SDS011;60173;52.112;8.648;2022-12-18T11:33:46;16.00;;;8.23;;
72261;SDS011;60173;52.112;8.648;2022-12-18T11:36:39;21.63;;;8.73;;
72261;SDS011;60173;52.112;8.648;2022-12-18T11:39:11;19.38;;;8.52;;
72261;SDS011;60173;52.112;8.648;2022-12-18T11:41:52;17.75;;;9.15;;
72261;SDS011;60173;52.112;8.648;2022-12-18T11:44:26;20.63;;;9.50;;
72261;SDS011;60173;52.112;8.648;2022-12-18T11:47:03;20.23;;;9.57;;
72261;SDS011;60173;52.112;8.648;2022-12-18T11:49:35;16.15;;;8.43;;
72261;SDS011;60173;52.112;8.648;2022-12-18T11:52:09;20.60;;;8.68;;
72261;SDS011;60173;52.112;8.648;2022-12-18T11:54:39;19.98;;;9.05;;
72261;SDS011;60173;52.112;8.648;2022-12-18T12:00:12;16.05;;;8.50;;
72261;SDS011;60173;52.112;8.648;2022-12-18T12:05:31;18.67;;;8.73;;
72261;SDS011;60173;52.112;8.648;2022-12-18T12:16:32;20.58;;;9.75;;
72261;SDS011;60173;52.112;8.648;2022-12-18T12:19:15;14.63;;;6.93;;
72261;SDS011;60173;52.112;8.648;2022-12-18T12:21:47;19.40;;;9.38;;
72261;SDS011;60173;52.112;8.648;2022-12-18T12:30:21;16.02;;;7.90;;
72261;SDS011;60173;52.112;8.648;2022-12-18T12:38:01;17.33;;;7.88;;
72261;SDS011;60173;52.112;8.648;2022-12-18T12:40:49;17.20;;;7.97;;
72261;SDS011;60173;52.112;8.648;2022-12-18T12:43:44;16.15;;;8.25;;
72261;SDS011;60173;52.112;8.648;2022-12-18T12:46:17;17.27;;;8.02;;
72261;SDS011;60173;52.112;8.648;2022-12-18T12:48:54;19.25;;;8.30;;
72261;SDS011;60173;52.112;8.648;2022-12-18T12:51:27;14.55;;;7.30;;
72261;SDS011;60173;52.112;8.648;2022-12-18T12:53:56;21.08;;;7.88;;
72261;SDS011;60173;52.112;8.648;2022-12-18T12:56:24;17.23;;;8.05;;
72261;SDS011;60173;52.112;8.648;2022-12-18T13:06:59;16.35;;;8.10;;
72261;SDS011;60173;52.112;8.648;2022-12-18T13:09:33;17.00;;;7.88;;
72261;SDS011;60173;52.112;8.648;2022-12-18T13:12:04;18.25;;;7.45;;
72261;SDS011;60173;52.112;8.648;2022-12-18T13:14:37;18.40;;;8.33;;
72261;SDS011;60173;52.112;8.648;2022-12-18T13:17:15;14.13;;;7.47;;
72261;SDS011;60173;52.112;8.648;2022-12-18T13:19:49;17.58;;;7.97;;
72261;SDS011;60173;52.112;8.648;2022-12-18T13:22:24;15.55;;;7.60;;
72261;SDS011;60173;52.112;8.648;2022-12-18T13:24:57;15.48;;;7.78;;
72261;SDS011;60173;52.112;8.648;2022-12-18T13:40:55;16.52;;;7.38;;
72261;SDS011;60173;52.112;8.648;2022-12-18T13:46:23;15.15;;;6.80;;
72261;SDS011;60173;52.112;8.648;2022-12-18T13:51:41;17.35;;;7.53;;
72261;SDS011;60173;52.112;8.648;2022-12-18T13:57:01;12.75;;;7.03;;
72261;SDS011;60173;52.112;8.648;2022-12-18T13:59:38;14.85;;;6.82;;
72261;SDS011;60173;52.112;8.648;2022-12-18T14:07:10;14.60;;;7.05;;
72261;SDS011;60173;52.112;8.648;2022-12-18T14:09:42;16.75;;;6.93;;
72261;SDS011;60173;52.112;8.648;2022-12-18T14:12:17;21.33;;;7.95;;
72261;SDS011;60173;52.112;8.648;2022-12-18T14:14:48;12.80;;;6.63;;
72261;SDS011;60173;52.112;8.648;2022-12-18T14:17:20;13.38;;;6.72;;
72261;SDS011;60173;52.112;8.648;2022-12-18T14:19:50;13.60;;;6.80;;
72261;SDS011;60173;52.112;8.648;2022-12-18T14:22:25;14.85;;;6.97;;
72261;SDS011;60173;52.112;8.648;2022-12-18T14:27:59;13.07;;;6.50;;
72261;SDS011;60173;52.112;8.648;2022-12-18T14:30:40;12.43;;;6.55;;
72261;SDS011;60173;52.112;8.648;2022-12-18T14:35:35;13.95;;;6.65;;
72261;SDS011;60173;52.112;8.648;2022-12-18T14:40:42;13.50;;;6.78;;
72261;SDS011;60173;52.112;8.648;2022-12-18T14:43:12;15.43;;;7.13;;
72261;SDS011;60173;52.112;8.648;2022-12-18T14:45:42;14.82;;;7.63;;
72261;SDS011;60173;52.112;8.648;2022-12-18T14:48:16;13.90;;;7.40;;
72261;SDS011;60173;52.112;8.648;2022-12-18T14:51:02;15.02;;;7.80;;
72261;SDS011;60173;52.112;8.648;2022-12-18T14:53:41;15.50;;;7.80;;
72261;SDS011;60173;52.112;8.648;2022-12-18T14:56:22;15.82;;;7.32;;
72261;SDS011;60173;52.112;8.648;2022-12-18T14:58:58;14.70;;;7.82;;
72261;SDS011;60173;52.112;8.648;2022-12-18T15:01:39;14.48;;;7.47;;
72261;SDS011;60173;52.112;8.648;2022-12-18T15:07:02;16.02;;;7.28;;
72261;SDS011;60173;52.112;8.648;2022-12-18T15:09:38;15.10;;;7.47;;
72261;SDS011;60173;52.112;8.648;2022-12-18T15:12:20;13.80;;;6.93;;
72261;SDS011;60173;52.112;8.648;2022-12-18T15:17:21;16.42;;;7.30;;
72261;SDS011;60173;52.112;8.648;2022-12-18T15:19:58;15.50;;;7.68;;
72261;SDS011;60173;52.112;8.648;2022-12-18T15:22:30;17.55;;;7.93;;
72261;SDS011;60173;52.112;8.648;2022-12-18T15:25:00;16.65;;;7.95;;
72261;SDS011;60173;52.112;8.648;2022-12-18T15:27:35;17.05;;;8.27;;
72261;SDS011;60173;52.112;8.648;2022-12-18T15:32:38;14.63;;;7.20;;
72261;SDS011;60173;52.112;8.648;2022-12-18T15:37:47;20.20;;;8.43;;
72261;SDS011;60173;52.112;8.648;2022-12-18T15:40:21;18.73;;;8.93;;
72261;SDS011;60173;52.112;8.648;2022-12-18T15:42:50;17.23;;;7.78;;
72261;SDS011;60173;52.112;8.648;2022-12-18T15:45:20;18.38;;;7.97;;
72261;SDS011;60173;52.112;8.648;2022-12-18T15:47:49;18.05;;;8.77;;
72261;SDS011;60173;52.112;8.648;2022-12-18T15:50:15;18.35;;;8.32;;
72261;SDS011;60173;52.112;8.648;2022-12-18T15:52:42;15.07;;;8.00;;
72261;SDS011;60173;52.112;8.648;2022-12-18T15:55:15;17.02;;;7.80;;
72261;SDS011;60173;52.112;8.648;2022-12-18T15:57:43;14.90;;;7.65;;
72261;SDS011;60173;52.112;8.648;2022-12-18T16:00:11;14.52;;;7.97;;
72261;SDS011;60173;52.112;8.648;2022-12-18T16:02:38;22.42;;;8.48;;
72261;SDS011;60173;52.112;8.648;2022-12-18T16:05:09;18.45;;;8.43;;
72261;SDS011;60173;52.112;8.648;2022-12-18T16:07:40;19.23;;;8.45;;
72261;SDS011;60173;52.112;8.648;2022-12-18T16:10:06;16.10;;;7.75;;
72261;SDS011;60173;52.112;8.648;2022-12-18T16:12:34;16.83;;;8.20;;
72261;SDS011;60173;52.112;8.648;2022-12-18T16:15:02;18.48;;;8.98;;
72261;SDS011;60173;52.112;8.648;2022-12-18T16:17:29;18.30;;;8.60;;
72261;SDS011;60173;52.112;8.648;2022-12-18T16:19:55;18.33;;;8.80;;
72261;SDS011;60173;52.112;8.648;2022-12-18T16:22:26;16.90;;;8.63;;
72261;SDS011;60173;52.112;8.648;2022-12-18T16:24:54;16.02;;;8.15;;
72261;SDS011;60173;52.112;8.648;2022-12-18T16:27:22;17.73;;;8.35;;
72261;SDS011;60173;52.112;8.648;2022-12-18T16:29:49;17.92;;;8.75;;
72261;SDS011;60173;52.112;8.648;2022-12-18T16:32:17;16.50;;;8.82;;
72261;SDS011;60173;52.112;8.648;2022-12-18T16:34:45;20.92;;;9.40;;
72261;SDS011;60173;52.112;8.648;2022-12-18T16:37:13;16.67;;;8.82;;
72261;SDS011;60173;52.112;8.648;2022-12-18T16:39:41;18.08;;;9.32;;
72261;SDS011;60173;52.112;8.648;2022-12-18T16:44:39;17.58;;;9.52;;
72261;SDS011;60173;52.112;8.648;2022-12-18T16:47:05;21.38;;;10.18;;
72261;SDS011;60173;52.112;8.648;2022-12-18T16:49:34;21.77;;;10.30;;
72261;SDS011;60173;52.112;8.648;2022-12-18T16:52:00;23.65;;;10.02;;
72261;SDS011;60173;52.112;8.648;2022-12-18T16:54:27;19.55;;;10.38;;
72261;SDS011;60173;52.112;8.648;2022-12-18T16:56:53;17.63;;;9.60;;
72261;SDS011;60173;52.112;8.648;2022-12-18T16:59:20;20.95;;;9.75;;
72261;SDS011;60173;52.112;8.648;2022-12-18T17:01:47;20.63;;;10.05;;
72261;SDS011;60173;52.112;8.648;2022-12-18T17:04:13;21.70;;;9.93;;
72261;SDS011;60173;52.112;8.648;2022-12-18T17:06:42;21.80;;;10.15;;